Time;durP1;ratioP1;P1;durP2;ratioP2;P2;SDS_P1;SDS_P2;PMS_P1;PMS_P2;Temp;Humidity;BMP_temperature;BMP_pressure;BME280_temperature;BME280_humidity;BME280_pressure;Samples;Min_cycle;Max_cycle;Signal;HPM_P1;HPM_P2
2023/09/22 00:01:25;;;;;;;12.68;9.35;;;;;;;;;;4916103;29;20051;-78
2023/09/22 00:03:51;;;;;;;12.00;9.52;;;;;;;;;;4954021;29;20133;-78
2023/09/22 00:06:18;;;;;;;15.27;9.40;;;;;;;;;;4954073;29;20164;-77
2023/09/22 00:08:45;;;;;;;11.07;7.88;;;;;;;;;;4931633;29;20134;-77
2023/09/22 00:11:11;;;;;;;10.63;7.72;;;;;;;;;;4955339;28;20554;-78
2023/09/22 00:13:37;;;;;;;11.63;8.05;;;;;;;;;;4921012;29;20051;-78
2023/09/22 00:16:04;;;;;;;13.95;8.30;;;;;;;;;;4954862;29;20065;-78
2023/09/22 00:18:31;;;;;;;13.85;9.40;;;;;;;;;;4953529;28;20410;-78
2023/09/22 00:20:57;;;;;;;12.60;10.10;;;;;;;;;;4954708;29;20134;-78
2023/09/22 00:23:23;;;;;;;14.93;10.45;;;;;;;;;;4937888;29;20043;-78
2023/09/22 00:25:49;;;;;;;15.20;11.52;;;;;;;;;;4955317;29;20059;-78
2023/09/22 00:28:15;;;;;;;16.27;12.43;;;;;;;;;;4954768;29;20520;-78
2023/09/22 00:30:41;;;;;;;17.13;13.48;;;;;;;;;;4955379;29;20047;-78
2023/09/22 00:33:07;;;;;;;18.70;14.00;;;;;;;;;;4936629;29;20044;-78
2023/09/22 00:35:33;;;;;;;17.92;14.68;;;;;;;;;;4954639;29;20058;-78
2023/09/22 00:38:00;;;;;;;19.85;13.80;;;;;;;;;;4954688;28;20047;-78
2023/09/22 00:40:26;;;;;;;20.35;15.15;;;;;;;;;;4936525;29;20052;-78
2023/09/22 00:43:09;;;;;;;18.70;15.18;;;;;;;;;;4948524;29;20102;-78
2023/09/22 00:45:36;;;;;;;21.13;15.27;;;;;;;;;;4950801;28;20414;-77
2023/09/22 00:48:04;;;;;;;20.65;15.82;;;;;;;;;;4937333;29;20478;-78
2023/09/22 00:50:30;;;;;;;22.90;16.77;;;;;;;;;;4953936;29;20046;-78
2023/09/22 00:52:57;;;;;;;18.08;15.68;;;;;;;;;;4954778;29;20043;-78
2023/09/22 00:55:23;;;;;;;19.33;13.90;;;;;;;;;;4953575;29;20054;-77
2023/09/22 00:57:51;;;;;;;16.38;14.25;;;;;;;;;;4952802;29;20062;-78
2023/09/22 01:00:19;;;;;;;17.35;15.55;;;;;;;;;;4937624;29;20051;-78
2023/09/22 01:02:45;;;;;;;18.02;13.40;;;;;;;;;;4952308;29;20079;-78
2023/09/22 01:05:11;;;;;;;16.30;13.98;;;;;;;;;;4952701;29;20051;-78
2023/09/22 01:07:38;;;;;;;16.15;13.40;;;;;;;;;;4953465;29;20121;-77
2023/09/22 01:10:10;;;;;;;16.05;14.15;;;;;;;;;;4950951;29;20054;-77
2023/09/22 01:12:36;;;;;;;17.05;14.18;;;;;;;;;;4931239;29;20520;-78
2023/09/22 01:15:02;;;;;;;15.82;14.02;;;;;;;;;;4952625;29;20594;-77
2023/09/22 01:17:29;;;;;;;16.83;14.52;;;;;;;;;;4952716;29;20509;-78
2023/09/22 01:19:55;;;;;;;17.98;14.13;;;;;;;;;;4937733;29;20487;-78
2023/09/22 01:22:21;;;;;;;17.40;14.23;;;;;;;;;;4948726;29;20039;-77
2023/09/22 01:24:47;;;;;;;16.40;14.57;;;;;;;;;;4935064;29;20074;-78
2023/09/22 01:27:13;;;;;;;18.58;14.95;;;;;;;;;;4951581;29;20057;-78
2023/09/22 01:29:40;;;;;;;15.05;13.57;;;;;;;;;;4953898;29;20454;-77
2023/09/22 01:32:09;;;;;;;17.10;14.00;;;;;;;;;;4951733;29;20054;-77
2023/09/22 01:34:35;;;;;;;16.30;12.48;;;;;;;;;;4937304;29;20039;-78
2023/09/22 01:37:07;;;;;;;15.23;13.60;;;;;;;;;;4952703;29;20098;-78
2023/09/22 01:39:33;;;;;;;16.08;13.70;;;;;;;;;;4936722;29;20051;-78
2023/09/22 01:41:59;;;;;;;17.15;14.13;;;;;;;;;;4954304;29;20406;-78
2023/09/22 01:44:25;;;;;;;15.00;13.10;;;;;;;;;;4953918;29;20106;-77
2023/09/22 01:46:52;;;;;;;16.15;13.60;;;;;;;;;;4952278;29;20054;-77
2023/09/22 01:49:18;;;;;;;15.38;12.75;;;;;;;;;;4952538;29;20051;-78
2023/09/22 01:51:44;;;;;;;16.25;14.15;;;;;;;;;;4953533;29;20058;-78
2023/09/22 01:54:10;;;;;;;15.63;14.00;;;;;;;;;;4954330;29;20126;-78
2023/09/22 01:56:36;;;;;;;17.50;14.15;;;;;;;;;;4952343;29;20043;-78
2023/09/22 01:59:02;;;;;;;17.30;14.15;;;;;;;;;;4951330;29;20040;-78
2023/09/22 02:01:28;;;;;;;18.08;13.93;;;;;;;;;;4952844;29;20087;-78
2023/09/22 02:03:54;;;;;;;16.92;14.85;;;;;;;;;;4953387;29;20044;-78
2023/09/22 02:06:21;;;;;;;18.73;14.82;;;;;;;;;;4953467;29;20050;-78
2023/09/22 02:08:47;;;;;;;19.38;15.70;;;;;;;;;;4953576;29;20094;-78
2023/09/22 02:11:13;;;;;;;19.33;15.98;;;;;;;;;;4952652;29;20043;-78
2023/09/22 02:13:40;;;;;;;17.73;15.77;;;;;;;;;;4952405;29;20494;-78
2023/09/22 02:16:06;;;;;;;19.13;15.75;;;;;;;;;;4934947;29;20062;-78
2023/09/22 02:18:32;;;;;;;17.30;14.55;;;;;;;;;;4936170;29;20521;-78
2023/09/22 02:20:58;;;;;;;18.55;16.10;;;;;;;;;;4953664;29;20051;-78
2023/09/22 02:23:26;;;;;;;19.95;16.33;;;;;;;;;;4939320;29;20048;-78
2023/09/22 02:25:52;;;;;;;18.70;15.50;;;;;;;;;;4942824;29;20102;-78
2023/09/22 02:28:18;;;;;;;19.48;16.55;;;;;;;;;;4935052;29;20054;-78
2023/09/22 02:30:44;;;;;;;18.70;16.10;;;;;;;;;;4953522;28;20450;-78
2023/09/22 02:33:10;;;;;;;21.73;17.05;;;;;;;;;;4954020;28;20047;-78
2023/09/22 02:35:41;;;;;;;18.52;15.88;;;;;;;;;;4957280;29;20409;-78
2023/09/22 02:38:07;;;;;;;19.55;16.40;;;;;;;;;;4938156;29;20055;-79
2023/09/22 02:40:33;;;;;;;18.80;15.00;;;;;;;;;;4939341;29;20051;-78
2023/09/22 02:42:59;;;;;;;19.45;16.77;;;;;;;;;;4957390;29;20086;-78
2023/09/22 02:45:25;;;;;;;20.83;17.00;;;;;;;;;;4956798;29;20086;-78
2023/09/22 02:47:53;;;;;;;21.00;17.88;;;;;;;;;;4957334;29;20054;-78
2023/09/22 02:50:19;;;;;;;21.98;17.80;;;;;;;;;;4956572;29;20043;-78
2023/09/22 02:52:45;;;;;;;19.63;16.85;;;;;;;;;;4939100;29;20047;-78
2023/09/22 02:55:13;;;;;;;22.58;18.20;;;;;;;;;;4956452;29;20045;-78
2023/09/22 02:57:42;;;;;;;24.63;19.77;;;;;;;;;;4957191;29;20063;-78
2023/09/22 03:00:14;;;;;;;23.65;17.27;;;;;;;;;;4956817;29;20047;-78
2023/09/22 03:02:40;;;;;;;25.88;18.90;;;;;;;;;;4957249;29;20503;-78
2023/09/22 03:05:08;;;;;;;23.70;19.42;;;;;;;;;;4954570;29;20040;-78
2023/09/22 03:07:34;;;;;;;22.42;18.35;;;;;;;;;;4955219;29;20054;-79
2023/09/22 03:10:00;;;;;;;22.00;19.50;;;;;;;;;;4955279;29;20035;-78
2023/09/22 03:12:26;;;;;;;22.40;17.90;;;;;;;;;;4956280;29;20043;-79
2023/09/22 03:14:52;;;;;;;21.40;18.55;;;;;;;;;;4939097;29;20055;-78
2023/09/22 03:17:18;;;;;;;21.55;16.50;;;;;;;;;;4956130;29;20083;-79
2023/09/22 03:19:45;;;;;;;24.73;19.10;;;;;;;;;;4953522;29;20051;-78
2023/09/22 03:22:11;;;;;;;21.70;18.30;;;;;;;;;;4954473;29;20060;-79
2023/09/22 03:24:37;;;;;;;26.33;19.70;;;;;;;;;;4953548;29;20063;-79
2023/09/22 03:27:03;;;;;;;22.52;19.35;;;;;;;;;;4955872;29;20055;-78
2023/09/22 03:29:29;;;;;;;24.13;20.35;;;;;;;;;;4954965;29;20051;-79
2023/09/22 03:31:55;;;;;;;22.25;19.90;;;;;;;;;;4956513;29;20043;-78
2023/09/22 03:34:21;;;;;;;22.38;19.20;;;;;;;;;;4955096;29;20040;-78
2023/09/22 03:36:49;;;;;;;23.52;20.58;;;;;;;;;;4955978;29;20057;-79
2023/09/22 03:39:15;;;;;;;22.77;19.25;;;;;;;;;;4953667;29;20051;-79
2023/09/22 03:41:42;;;;;;;24.58;21.23;;;;;;;;;;4956143;29;20044;-79
2023/09/22 03:44:08;;;;;;;25.13;20.33;;;;;;;;;;4938041;29;20138;-79
2023/09/22 03:46:34;;;;;;;25.70;21.55;;;;;;;;;;4954746;29;20039;-78
2023/09/22 03:49:00;;;;;;;27.17;22.38;;;;;;;;;;4954808;29;20110;-78
2023/09/22 03:51:28;;;;;;;26.83;21.77;;;;;;;;;;4937608;29;20498;-79
2023/09/22 03:53:54;;;;;;;22.77;20.20;;;;;;;;;;4954164;29;20062;-79
2023/09/22 03:56:20;;;;;;;24.83;20.40;;;;;;;;;;4935657;29;20043;-78
2023/09/22 03:58:46;;;;;;;26.88;22.15;;;;;;;;;;4953499;28;20466;-79
2023/09/22 04:01:12;;;;;;;26.15;20.63;;;;;;;;;;4953532;29;20054;-79
2023/09/22 04:03:38;;;;;;;25.20;20.67;;;;;;;;;;4954070;29;20051;-79
2023/09/22 04:06:05;;;;;;;26.45;19.40;;;;;;;;;;4953763;29;20048;-79
2023/09/22 04:08:31;;;;;;;22.55;18.98;;;;;;;;;;4952267;29;20058;-78
2023/09/22 04:10:57;;;;;;;22.55;17.88;;;;;;;;;;4947080;29;20043;-79
2023/09/22 04:13:27;;;;;;;22.52;16.95;;;;;;;;;;4935685;29;20051;-78
2023/09/22 04:16:04;;;;;;;20.20;17.13;;;;;;;;;;4951761;29;20145;-79
2023/09/22 04:18:30;;;;;;;20.88;16.88;;;;;;;;;;4953294;29;20047;-79
2023/09/22 04:20:57;;;;;;;22.00;17.00;;;;;;;;;;4934763;29;20082;-79
2023/09/22 04:23:27;;;;;;;20.52;17.05;;;;;;;;;;4952095;29;20051;-79
2023/09/22 04:25:54;;;;;;;22.67;16.60;;;;;;;;;;4954243;29;20043;-79
2023/09/22 04:28:25;;;;;;;17.98;15.40;;;;;;;;;;4954215;29;20310;-79
2023/09/22 04:30:54;;;;;;;22.38;16.45;;;;;;;;;;4952713;29;20616;-79
2023/09/22 04:33:21;;;;;;;27.75;18.25;;;;;;;;;;4954934;29;20065;-78
2023/09/22 04:35:50;;;;;;;21.10;15.93;;;;;;;;;;4953523;29;20040;-79
2023/09/22 04:38:18;;;;;;;22.40;16.73;;;;;;;;;;4954347;29;20055;-79
2023/09/22 04:40:44;;;;;;;20.45;16.60;;;;;;;;;;4936461;29;20394;-78
2023/09/22 04:43:14;;;;;;;23.60;17.88;;;;;;;;;;4954540;29;20051;-79
2023/09/22 04:45:40;;;;;;;22.10;16.52;;;;;;;;;;4936899;29;20512;-79
2023/09/22 04:48:07;;;;;;;24.55;19.10;;;;;;;;;;4952602;29;20050;-79
2023/09/22 04:50:33;;;;;;;27.85;20.15;;;;;;;;;;4951886;29;20047;-78
2023/09/22 04:53:00;;;;;;;28.02;19.77;;;;;;;;;;4949403;29;20510;-79
2023/09/22 04:55:29;;;;;;;27.48;20.92;;;;;;;;;;4953040;29;20079;-79
2023/09/22 04:57:56;;;;;;;26.05;21.98;;;;;;;;;;4953157;29;20047;-78
2023/09/22 05:00:24;;;;;;;28.70;21.30;;;;;;;;;;4953231;29;20039;-79
2023/09/22 05:02:52;;;;;;;31.85;24.80;;;;;;;;;;4953179;29;20118;-79
2023/09/22 05:05:19;;;;;;;30.48;24.50;;;;;;;;;;4951573;29;20047;-79
2023/09/22 05:07:45;;;;;;;28.20;22.35;;;;;;;;;;4947628;29;20039;-79
2023/09/22 05:10:12;;;;;;;30.50;24.40;;;;;;;;;;4935147;29;20103;-79
2023/09/22 05:12:38;;;;;;;30.80;24.45;;;;;;;;;;4953519;29;20055;-79
2023/09/22 05:15:05;;;;;;;30.52;23.88;;;;;;;;;;4953041;29;20047;-79
2023/09/22 05:17:32;;;;;;;31.23;25.00;;;;;;;;;;4936606;29;20079;-79
2023/09/22 05:19:58;;;;;;;32.33;25.95;;;;;;;;;;4951119;29;20051;-79
2023/09/22 05:22:24;;;;;;;32.65;25.55;;;;;;;;;;4933410;29;20058;-79
2023/09/22 05:24:51;;;;;;;34.03;26.00;;;;;;;;;;4949331;29;20612;-79
2023/09/22 05:27:18;;;;;;;30.30;26.10;;;;;;;;;;4949681;29;20435;-79
2023/09/22 05:29:45;;;;;;;31.35;25.75;;;;;;;;;;4934111;29;20056;-79
2023/09/22 05:32:11;;;;;;;33.70;26.20;;;;;;;;;;4951822;29;20051;-79
2023/09/22 05:34:39;;;;;;;37.20;28.23;;;;;;;;;;4920466;29;20047;-79
2023/09/22 05:37:05;;;;;;;37.03;27.80;;;;;;;;;;4917514;29;20083;-79
2023/09/22 05:39:31;;;;;;;31.08;27.55;;;;;;;;;;4951911;29;20598;-78
2023/09/22 05:41:58;;;;;;;32.28;26.38;;;;;;;;;;4952455;29;20051;-79
2023/09/22 05:44:25;;;;;;;35.08;28.55;;;;;;;;;;4941662;29;20055;-79
2023/09/22 05:46:51;;;;;;;31.23;27.30;;;;;;;;;;4949009;28;20418;-79
2023/09/22 05:49:18;;;;;;;37.00;28.67;;;;;;;;;;4951766;29;20057;-79
2023/09/22 05:51:44;;;;;;;30.23;26.23;;;;;;;;;;4952103;29;20126;-78
2023/09/22 05:54:10;;;;;;;33.33;27.65;;;;;;;;;;4953254;29;20039;-78
2023/09/22 05:56:36;;;;;;;34.58;27.92;;;;;;;;;;4950651;29;20109;-79
2023/09/22 05:59:06;;;;;;;35.28;28.30;;;;;;;;;;4951735;29;20434;-78
2023/09/22 06:01:35;;;;;;;30.42;25.83;;;;;;;;;;4944067;29;20043;-78
2023/09/22 06:04:04;;;;;;;34.15;28.05;;;;;;;;;;4952042;28;20146;-79
2023/09/22 06:06:31;;;;;;;35.30;28.17;;;;;;;;;;4956607;28;20051;-79
2023/09/22 06:08:57;;;;;;;30.65;25.67;;;;;;;;;;4938855;29;20547;-79
2023/09/22 06:11:24;;;;;;;29.42;24.20;;;;;;;;;;4957945;29;20051;-79
2023/09/22 06:13:50;;;;;;;28.30;22.95;;;;;;;;;;4956971;29;20117;-79
2023/09/22 06:16:16;;;;;;;28.25;22.25;;;;;;;;;;4956144;29;20055;-79
2023/09/22 06:18:42;;;;;;;29.67;21.88;;;;;;;;;;4963186;28;20043;-80
2023/09/22 06:21:10;;;;;;;29.75;22.35;;;;;;;;;;4930173;28;20128;-79
2023/09/22 06:23:36;;;;;;;25.30;20.95;;;;;;;;;;4966117;28;20055;-79
2023/09/22 06:26:10;;;;;;;23.63;19.83;;;;;;;;;;4960128;28;20047;-79
2023/09/22 06:28:37;;;;;;;23.50;18.63;;;;;;;;;;4950908;29;20413;-79
2023/09/22 06:31:04;;;;;;;26.77;19.23;;;;;;;;;;4955144;29;20055;-79
2023/09/22 06:33:30;;;;;;;26.45;18.95;;;;;;;;;;4957307;29;20086;-79
2023/09/22 06:35:57;;;;;;;23.33;17.70;;;;;;;;;;4959117;29;20051;-79
2023/09/22 06:38:23;;;;;;;21.70;17.98;;;;;;;;;;4954549;28;20048;-79
2023/09/22 06:40:50;;;;;;;25.50;18.20;;;;;;;;;;4957406;29;20039;-79
2023/09/22 06:43:16;;;;;;;21.30;16.13;;;;;;;;;;4958727;29;20185;-79
2023/09/22 06:45:42;;;;;;;20.88;15.73;;;;;;;;;;4959005;29;20064;-79
2023/09/22 06:48:09;;;;;;;24.00;16.38;;;;;;;;;;4959091;29;20051;-79
2023/09/22 06:50:38;;;;;;;22.80;16.13;;;;;;;;;;4956708;29;20042;-79
2023/09/22 06:53:05;;;;;;;21.55;14.63;;;;;;;;;;4938987;29;20494;-79
2023/09/22 06:55:31;;;;;;;22.17;14.25;;;;;;;;;;4955186;29;20059;-79
2023/09/22 06:57:59;;;;;;;17.95;13.32;;;;;;;;;;4962876;28;20546;-79
2023/09/22 07:00:28;;;;;;;19.23;13.90;;;;;;;;;;4948174;29;20043;-79
2023/09/22 07:02:54;;;;;;;18.95;13.15;;;;;;;;;;4956731;29;20098;-78
2023/09/22 07:05:20;;;;;;;15.32;11.43;;;;;;;;;;4956378;29;20490;-78
2023/09/22 07:07:47;;;;;;;18.90;12.75;;;;;;;;;;4938878;29;20106;-78
2023/09/22 07:10:13;;;;;;;17.58;12.27;;;;;;;;;;4939167;29;20050;-79
2023/09/22 07:12:41;;;;;;;19.13;12.48;;;;;;;;;;4937270;29;20048;-78
2023/09/22 07:15:08;;;;;;;18.98;11.85;;;;;;;;;;4938891;29;20051;-79
2023/09/22 07:17:34;;;;;;;18.60;11.57;;;;;;;;;;4956177;29;20058;-78
2023/09/22 07:20:01;;;;;;;18.65;11.23;;;;;;;;;;4954213;28;20058;-78
2023/09/22 07:22:27;;;;;;;19.23;10.73;;;;;;;;;;4955106;29;20051;-78
2023/09/22 07:24:53;;;;;;;17.13;10.88;;;;;;;;;;4955702;29;20066;-78
2023/09/22 07:27:19;;;;;;;18.83;10.32;;;;;;;;;;4955359;29;20051;-78
2023/09/22 07:29:50;;;;;;;15.30;10.93;;;;;;;;;;4955076;29;20051;-79
2023/09/22 07:32:16;;;;;;;14.03;10.60;;;;;;;;;;4958783;28;20066;-78
2023/09/22 07:34:42;;;;;;;14.00;10.70;;;;;;;;;;4956267;28;20048;-79
2023/09/22 07:37:11;;;;;;;17.13;10.57;;;;;;;;;;4955453;29;20073;-79
2023/09/22 07:39:40;;;;;;;15.57;10.63;;;;;;;;;;4953717;28;20090;-78
2023/09/22 07:42:07;;;;;;;15.30;10.55;;;;;;;;;;4951541;29;20051;-78
2023/09/22 07:44:33;;;;;;;15.98;10.02;;;;;;;;;;4953724;29;20050;-79
2023/09/22 07:47:00;;;;;;;13.98;10.07;;;;;;;;;;4957444;28;20039;-78
2023/09/22 07:49:29;;;;;;;17.05;10.20;;;;;;;;;;4933625;29;20070;-78
2023/09/22 07:51:56;;;;;;;11.52;8.93;;;;;;;;;;4955166;29;20486;-78
2023/09/22 07:54:24;;;;;;;14.90;9.23;;;;;;;;;;4954924;29;20048;-78
2023/09/22 07:56:51;;;;;;;13.88;9.45;;;;;;;;;;4952853;29;20053;-78
2023/09/22 07:59:17;;;;;;;13.43;8.98;;;;;;;;;;4955813;29;20046;-79
2023/09/22 08:01:43;;;;;;;12.40;9.05;;;;;;;;;;4955502;29;20078;-78
2023/09/22 08:04:10;;;;;;;14.10;9.50;;;;;;;;;;4956250;28;20059;-80
2023/09/22 08:06:37;;;;;;;15.25;9.63;;;;;;;;;;4957909;29;20055;-81
2023/09/22 08:09:06;;;;;;;12.93;9.10;;;;;;;;;;4941314;29;20051;-79
2023/09/22 08:11:32;;;;;;;13.50;8.55;;;;;;;;;;4955350;29;20051;-78
2023/09/22 08:13:59;;;;;;;13.43;8.95;;;;;;;;;;4955449;29;20122;-78
2023/09/22 08:16:26;;;;;;;17.02;8.40;;;;;;;;;;4954370;29;20514;-78
2023/09/22 08:18:53;;;;;;;14.65;8.32;;;;;;;;;;4954558;29;20102;-78
2023/09/22 08:21:21;;;;;;;11.48;7.90;;;;;;;;;;4955105;29;20070;-78
2023/09/22 08:23:47;;;;;;;14.32;7.78;;;;;;;;;;4954515;29;20062;-78
2023/09/22 08:26:17;;;;;;;10.43;7.28;;;;;;;;;;4953128;29;20047;-79
2023/09/22 08:28:44;;;;;;;11.73;7.43;;;;;;;;;;4954322;29;20035;-79
2023/09/22 08:31:11;;;;;;;10.60;6.65;;;;;;;;;;4937011;29;20055;-78
2023/09/22 08:33:37;;;;;;;11.20;6.25;;;;;;;;;;4936207;29;20047;-79
2023/09/22 08:36:04;;;;;;;12.30;6.60;;;;;;;;;;4954713;29;21639;-80
2023/09/22 08:38:31;;;;;;;11.05;5.85;;;;;;;;;;4954914;29;20043;-80
2023/09/22 08:40:58;;;;;;;8.82;5.18;;;;;;;;;;4957871;28;20131;-79
2023/09/22 08:43:24;;;;;;;10.55;4.55;;;;;;;;;;4946004;28;20094;-79
2023/09/22 08:45:51;;;;;;;10.70;4.70;;;;;;;;;;4955054;29;20109;-79
2023/09/22 08:48:17;;;;;;;8.98;4.70;;;;;;;;;;4955374;29;20623;-79
2023/09/22 08:50:45;;;;;;;8.55;4.15;;;;;;;;;;4955977;28;20047;-79
2023/09/22 08:53:14;;;;;;;9.18;4.20;;;;;;;;;;4955506;29;20058;-80
2023/09/22 08:55:40;;;;;;;8.15;3.63;;;;;;;;;;4954700;28;20043;-79
2023/09/22 08:58:06;;;;;;;8.88;4.07;;;;;;;;;;4952281;29;20151;-79
2023/09/22 09:00:33;;;;;;;10.48;4.20;;;;;;;;;;4953366;29;20525;-79
2023/09/22 09:03:05;;;;;;;8.55;3.83;;;;;;;;;;4954192;29;20078;-78
2023/09/22 09:05:32;;;;;;;10.85;3.58;;;;;;;;;;4955485;29;20054;-78
2023/09/22 09:08:12;;;;;;;7.30;3.45;;;;;;;;;;4954629;29;20043;-79
2023/09/22 09:10:38;;;;;;;6.15;2.53;;;;;;;;;;4953989;29;20126;-78
2023/09/22 09:13:06;;;;;;;8.00;2.42;;;;;;;;;;4955357;29;20117;-79
2023/09/22 09:15:43;;;;;;;7.10;2.47;;;;;;;;;;4956716;28;20130;-79
2023/09/22 09:18:11;;;;;;;7.80;2.47;;;;;;;;;;4938932;29;20133;-79
2023/09/22 09:20:40;;;;;;;6.45;2.60;;;;;;;;;;4951006;29;22020;-79
2023/09/22 09:23:13;;;;;;;6.95;2.10;;;;;;;;;;4953282;29;20051;-79
2023/09/22 09:25:52;;;;;;;5.75;2.25;;;;;;;;;;4953839;29;20070;-78
2023/09/22 09:28:18;;;;;;;5.10;2.10;;;;;;;;;;4954435;29;20051;-79
2023/09/22 09:30:52;;;;;;;6.80;2.10;;;;;;;;;;4956519;28;20085;-79
2023/09/22 09:33:36;;;;;;;6.10;2.53;;;;;;;;;;4937982;29;20055;-79
2023/09/22 09:36:14;;;;;;;4.00;1.77;;;;;;;;;;4954055;29;20098;-79
2023/09/22 09:38:44;;;;;;;7.22;2.20;;;;;;;;;;4951142;29;20068;-79
2023/09/22 09:41:11;;;;;;;5.03;1.90;;;;;;;;;;4941021;29;20082;-78
2023/09/22 09:43:44;;;;;;;5.25;1.58;;;;;;;;;;4955910;28;20502;-78
2023/09/22 09:46:12;;;;;;;6.72;1.90;;;;;;;;;;4939622;29;20122;-78
2023/09/22 09:48:39;;;;;;;5.80;1.60;;;;;;;;;;4954851;29;20063;-79
2023/09/22 09:51:09;;;;;;;5.53;1.75;;;;;;;;;;4946565;29;20043;-79
2023/09/22 09:53:43;;;;;;;5.20;1.48;;;;;;;;;;4957976;29;20087;-79
2023/09/22 09:56:13;;;;;;;4.88;1.70;;;;;;;;;;4958374;28;20046;-78
2023/09/22 09:58:39;;;;;;;5.20;1.38;;;;;;;;;;4957161;29;20086;-79
2023/09/22 10:01:06;;;;;;;7.25;1.50;;;;;;;;;;4959367;29;20578;-79
2023/09/22 10:03:36;;;;;;;3.88;1.63;;;;;;;;;;4940401;29;20051;-79
2023/09/22 10:06:03;;;;;;;6.75;2.03;;;;;;;;;;4959377;28;20456;-79
2023/09/22 10:08:29;;;;;;;6.55;1.60;;;;;;;;;;4958277;29;20415;-79
2023/09/22 10:11:00;;;;;;;3.80;1.48;;;;;;;;;;4941640;29;20073;-80
2023/09/22 10:13:26;;;;;;;6.63;1.60;;;;;;;;;;4958209;29;20046;-78
2023/09/22 10:15:53;;;;;;;6.35;1.50;;;;;;;;;;4957281;29;20102;-79
2023/09/22 10:18:20;;;;;;;3.92;1.20;;;;;;;;;;4957472;29;20047;-76
2023/09/22 10:20:47;;;;;;;3.95;1.13;;;;;;;;;;4957686;28;20450;-79
2023/09/22 10:23:17;;;;;;;3.92;1.17;;;;;;;;;;4939069;28;20051;-79
2023/09/22 10:26:03;;;;;;;7.10;1.40;;;;;;;;;;4958634;29;20050;-79
2023/09/22 10:28:29;;;;;;;5.10;1.25;;;;;;;;;;4945356;28;20063;-80
2023/09/22 10:30:58;;;;;;;4.45;1.05;;;;;;;;;;4954247;28;20568;-80
2023/09/22 10:33:25;;;;;;;4.20;1.20;;;;;;;;;;4958306;28;20047;-80
2023/09/22 10:35:52;;;;;;;3.40;1.10;;;;;;;;;;4942417;29;20518;-80
2023/09/22 10:38:21;;;;;;;4.65;1.20;;;;;;;;;;4939868;29;20044;-80
2023/09/22 10:41:03;;;;;;;4.20;1.20;;;;;;;;;;4938417;29;20058;-80
2023/09/22 10:43:30;;;;;;;6.35;1.00;;;;;;;;;;4937252;29;20048;-80
2023/09/22 10:45:57;;;;;;;4.03;0.90;;;;;;;;;;4941124;29;20051;-80
2023/09/22 10:48:23;;;;;;;3.70;1.00;;;;;;;;;;4956464;29;20486;-78
2023/09/22 10:50:49;;;;;;;6.85;1.13;;;;;;;;;;4958455;29;20079;-80
2023/09/22 10:53:15;;;;;;;3.88;1.00;;;;;;;;;;4957692;28;20098;-79
2023/09/22 10:55:43;;;;;;;4.57;1.00;;;;;;;;;;4952909;29;20039;-79
2023/09/22 10:58:10;;;;;;;5.35;1.08;;;;;;;;;;4958263;28;20086;-79
2023/09/22 11:00:42;;;;;;;5.15;1.10;;;;;;;;;;4960450;29;20062;-80
2023/09/22 11:03:08;;;;;;;3.75;1.02;;;;;;;;;;4954358;29;20139;-79
2023/09/22 11:05:35;;;;;;;4.32;1.15;;;;;;;;;;4952118;29;20130;-79
2023/09/22 11:08:01;;;;;;;4.60;1.10;;;;;;;;;;4957187;29;20047;-80
2023/09/22 11:10:29;;;;;;;4.18;1.00;;;;;;;;;;4940323;29;20070;-80
2023/09/22 11:12:55;;;;;;;4.85;1.15;;;;;;;;;;4959110;29;20043;-79
2023/09/22 11:15:21;;;;;;;4.45;1.10;;;;;;;;;;4961459;28;20058;-80
2023/09/22 11:17:47;;;;;;;5.38;1.30;;;;;;;;;;4968112;28;20047;-79
2023/09/22 11:20:18;;;;;;;6.05;1.20;;;;;;;;;;4966872;28;20074;-80
2023/09/22 11:22:45;;;;;;;6.45;1.15;;;;;;;;;;4957320;29;20057;-79
2023/09/22 11:25:11;;;;;;;4.95;1.08;;;;;;;;;;4958484;29;20059;-79
2023/09/22 11:27:45;;;;;;;4.45;1.00;;;;;;;;;;4958693;29;20043;-79
2023/09/22 11:30:33;;;;;;;4.00;0.95;;;;;;;;;;4958755;28;20050;-79
2023/09/22 11:32:59;;;;;;;5.60;0.93;;;;;;;;;;4964316;28;20051;-79
2023/09/22 11:35:29;;;;;;;3.38;1.10;;;;;;;;;;4952401;28;20043;-79
2023/09/22 11:37:55;;;;;;;2.95;0.77;;;;;;;;;;4953353;28;20050;-80
2023/09/22 11:40:22;;;;;;;3.25;0.90;;;;;;;;;;4965234;28;20043;-80
2023/09/22 11:42:49;;;;;;;4.22;1.00;;;;;;;;;;4943961;29;20051;-80
2023/09/22 11:45:21;;;;;;;5.10;0.82;;;;;;;;;;4959240;28;20051;-79
2023/09/22 11:47:49;;;;;;;3.83;1.08;;;;;;;;;;4959764;29;20039;-79
2023/09/22 11:50:22;;;;;;;5.47;1.00;;;;;;;;;;4960207;29;20123;-79
2023/09/22 11:52:48;;;;;;;4.32;1.30;;;;;;;;;;4927432;29;20048;-80
2023/09/22 11:55:14;;;;;;;4.57;1.10;;;;;;;;;;4955882;28;20067;-79
2023/09/22 11:57:42;;;;;;;4.20;0.98;;;;;;;;;;4956146;29;20048;-80
2023/09/22 12:00:09;;;;;;;7.07;1.10;;;;;;;;;;4958518;29;20051;-80
2023/09/22 12:02:35;;;;;;;4.18;0.90;;;;;;;;;;4958048;29;20121;-80
2023/09/22 12:05:03;;;;;;;4.35;0.88;;;;;;;;;;4957880;28;20058;-79
2023/09/22 12:07:29;;;;;;;3.78;0.95;;;;;;;;;;4957645;29;20126;-80
2023/09/22 12:09:56;;;;;;;6.53;0.70;;;;;;;;;;4956487;29;20075;-80
2023/09/22 12:12:22;;;;;;;6.03;1.10;;;;;;;;;;4939936;29;20063;-80
2023/09/22 12:14:48;;;;;;;3.90;0.93;;;;;;;;;;4940072;29;20418;-79
2023/09/22 12:17:14;;;;;;;4.72;0.90;;;;;;;;;;4949352;29;20055;-79
2023/09/22 12:19:40;;;;;;;2.50;0.80;;;;;;;;;;4947942;29;20035;-79
2023/09/22 12:22:06;;;;;;;3.63;0.82;;;;;;;;;;4947482;28;20047;-80
2023/09/22 12:24:32;;;;;;;5.65;0.93;;;;;;;;;;4918403;29;20055;-79
2023/09/22 12:26:58;;;;;;;3.25;0.90;;;;;;;;;;4950336;28;20051;-80
2023/09/22 12:29:24;;;;;;;4.45;0.82;;;;;;;;;;4932672;29;20161;-80
2023/09/22 12:31:50;;;;;;;3.88;0.90;;;;;;;;;;4949323;29;20176;-80
2023/09/22 12:34:17;;;;;;;3.45;0.90;;;;;;;;;;4956675;29;20058;-80
2023/09/22 12:36:43;;;;;;;4.35;1.05;;;;;;;;;;4940190;29;20051;-79
2023/09/22 12:39:11;;;;;;;2.55;0.77;;;;;;;;;;4940192;29;20406;-79
2023/09/22 12:41:37;;;;;;;3.10;0.80;;;;;;;;;;4958209;29;20051;-81
2023/09/22 12:44:04;;;;;;;3.90;1.00;;;;;;;;;;4957391;29;20355;-80
2023/09/22 12:46:30;;;;;;;3.40;1.10;;;;;;;;;;4951856;29;20125;-80
2023/09/22 12:48:57;;;;;;;3.60;0.90;;;;;;;;;;4939393;29;20079;-80
2023/09/22 12:51:23;;;;;;;3.38;0.85;;;;;;;;;;4938346;29;20447;-80
2023/09/22 12:53:49;;;;;;;3.13;0.85;;;;;;;;;;4952888;29;20078;-78
2023/09/22 12:56:19;;;;;;;3.45;0.95;;;;;;;;;;4955267;29;20049;-80
2023/09/22 12:58:45;;;;;;;2.35;0.75;;;;;;;;;;4946519;29;20044;-79
2023/09/22 13:01:12;;;;;;;2.80;0.70;;;;;;;;;;4937875;29;20495;-79
2023/09/22 13:03:38;;;;;;;4.13;0.80;;;;;;;;;;4951113;29;20047;-81
2023/09/22 13:06:04;;;;;;;4.00;0.85;;;;;;;;;;4960458;28;20545;-80
2023/09/22 13:08:32;;;;;;;2.80;0.70;;;;;;;;;;4949319;29;20051;-80
2023/09/22 13:10:59;;;;;;;3.58;0.80;;;;;;;;;;4946930;28;20461;-80
2023/09/22 13:13:25;;;;;;;3.13;0.68;;;;;;;;;;4951245;29;20570;-79
2023/09/22 13:15:51;;;;;;;2.55;0.63;;;;;;;;;;4953974;29;20055;-80
2023/09/22 13:18:18;;;;;;;2.85;0.68;;;;;;;;;;4955414;28;20047;-79
2023/09/22 13:20:44;;;;;;;3.97;1.00;;;;;;;;;;4954816;29;20043;-80
2023/09/22 13:23:11;;;;;;;2.72;0.80;;;;;;;;;;4956044;29;20051;-80
2023/09/22 13:25:40;;;;;;;2.25;0.75;;;;;;;;;;4956120;29;20517;-80
2023/09/22 13:28:10;;;;;;;4.35;0.98;;;;;;;;;;4957154;29;20051;-79
2023/09/22 13:30:42;;;;;;;2.45;0.80;;;;;;;;;;4955689;29;20102;-79
2023/09/22 13:33:12;;;;;;;2.63;1.08;;;;;;;;;;4951558;29;20039;-80
2023/09/22 13:35:38;;;;;;;3.28;0.82;;;;;;;;;;4953226;29;20050;-79
2023/09/22 13:38:05;;;;;;;6.57;1.00;;;;;;;;;;4956451;29;20055;-80
2023/09/22 13:40:32;;;;;;;4.68;0.90;;;;;;;;;;4959102;28;20049;-79
2023/09/22 13:42:58;;;;;;;4.10;0.90;;;;;;;;;;4972358;28;20058;-80
2023/09/22 13:45:25;;;;;;;3.90;0.75;;;;;;;;;;4921036;29;20051;-80
2023/09/22 13:47:51;;;;;;;3.15;1.10;;;;;;;;;;4933672;29;20802;-80
2023/09/22 13:50:17;;;;;;;3.65;0.98;;;;;;;;;;4956974;28;20047;-80
2023/09/22 13:52:44;;;;;;;3.47;1.02;;;;;;;;;;4956682;28;20535;-80
2023/09/22 13:55:10;;;;;;;2.58;0.70;;;;;;;;;;4956077;29;20058;-80
2023/09/22 13:57:38;;;;;;;3.33;0.82;;;;;;;;;;4954623;29;20048;-79
2023/09/22 14:00:10;;;;;;;3.03;0.80;;;;;;;;;;4931070;29;20182;-79
2023/09/22 14:02:37;;;;;;;5.03;0.98;;;;;;;;;;4940896;28;20499;-79
2023/09/22 14:05:03;;;;;;;2.30;0.85;;;;;;;;;;4949764;28;20122;-80
2023/09/22 14:07:30;;;;;;;4.10;0.90;;;;;;;;;;4955262;28;20059;-80
2023/09/22 14:09:56;;;;;;;4.55;0.88;;;;;;;;;;4955993;28;20050;-80
2023/09/22 14:12:22;;;;;;;2.88;0.85;;;;;;;;;;4954468;29;20111;-80
2023/09/22 14:14:48;;;;;;;2.95;0.75;;;;;;;;;;4953842;29;20047;-79
2023/09/22 14:17:15;;;;;;;2.92;0.98;;;;;;;;;;4954232;28;20518;-80
2023/09/22 14:19:41;;;;;;;3.67;0.80;;;;;;;;;;4937606;29;20497;-80
2023/09/22 14:22:07;;;;;;;3.97;0.93;;;;;;;;;;4953814;29;20043;-80
2023/09/22 14:24:33;;;;;;;4.20;1.00;;;;;;;;;;4952154;29;20467;-80
2023/09/22 14:26:59;;;;;;;2.60;0.80;;;;;;;;;;4955260;29;20063;-80
2023/09/22 14:29:25;;;;;;;4.93;1.23;;;;;;;;;;4950157;28;20088;-79